sensor_id;sensor_type;location;lat;lon;timestamp;P1;durP1;ratioP1;P2;durP2;ratioP2
58101;SDS011;52034;51.926;6.320;2022-11-15T00:00:08;20.77;;;13.00;;
58101;SDS011;52034;51.926;6.320;2022-11-15T00:01:28;22.75;;;13.70;;
58101;SDS011;52034;51.926;6.320;2022-11-15T00:02:47;20.17;;;13.38;;
58101;SDS011;52034;51.926;6.320;2022-11-15T00:04:06;21.50;;;14.98;;
58101;SDS011;52034;51.926;6.320;2022-11-15T00:05:25;25.30;;;15.63;;
58101;SDS011;52034;51.926;6.320;2022-11-15T00:06:44;21.88;;;14.55;;
58101;SDS011;52034;51.926;6.320;2022-11-15T00:08:03;23.98;;;15.57;;
58101;SDS011;52034;51.926;6.320;2022-11-15T00:09:22;20.33;;;13.65;;
58101;SDS011;52034;51.926;6.320;2022-11-15T00:10:41;28.98;;;17.35;;
58101;SDS011;52034;51.926;6.320;2022-11-15T00:12:00;26.45;;;17.98;;
58101;SDS011;52034;51.926;6.320;2022-11-15T00:13:19;31.88;;;18.73;;
58101;SDS011;52034;51.926;6.320;2022-11-15T00:14:38;31.85;;;19.58;;
58101;SDS011;52034;51.926;6.320;2022-11-15T00:15:58;30.98;;;19.10;;
58101;SDS011;52034;51.926;6.320;2022-11-15T00:17:17;26.27;;;18.33;;
58101;SDS011;52034;51.926;6.320;2022-11-15T00:18:37;27.92;;;17.58;;
58101;SDS011;52034;51.926;6.320;2022-11-15T00:19:57;29.02;;;19.30;;
58101;SDS011;52034;51.926;6.320;2022-11-15T00:21:17;32.40;;;20.10;;
58101;SDS011;52034;51.926;6.320;2022-11-15T00:22:35;29.58;;;19.13;;
58101;SDS011;52034;51.926;6.320;2022-11-15T00:23:54;32.50;;;19.27;;
58101;SDS011;52034;51.926;6.320;2022-11-15T00:25:13;33.05;;;19.50;;
58101;SDS011;52034;51.926;6.320;2022-11-15T00:26:32;25.95;;;17.70;;
58101;SDS011;52034;51.926;6.320;2022-11-15T00:27:54;25.55;;;17.17;;
58101;SDS011;52034;51.926;6.320;2022-11-15T00:29:14;25.10;;;17.33;;
58101;SDS011;52034;51.926;6.320;2022-11-15T00:30:32;26.38;;;18.25;;
58101;SDS011;52034;51.926;6.320;2022-11-15T00:31:52;30.40;;;19.40;;
58101;SDS011;52034;51.926;6.320;2022-11-15T00:33:11;30.67;;;18.77;;
58101;SDS011;52034;51.926;6.320;2022-11-15T00:34:30;26.30;;;17.38;;
58101;SDS011;52034;51.926;6.320;2022-11-15T00:35:49;25.35;;;17.35;;
58101;SDS011;52034;51.926;6.320;2022-11-15T00:37:08;24.30;;;16.65;;
58101;SDS011;52034;51.926;6.320;2022-11-15T00:38:30;27.33;;;17.83;;
58101;SDS011;52034;51.926;6.320;2022-11-15T00:39:50;26.15;;;18.25;;
58101;SDS011;52034;51.926;6.320;2022-11-15T00:41:08;26.60;;;17.08;;
58101;SDS011;52034;51.926;6.320;2022-11-15T00:42:28;26.45;;;19.08;;
58101;SDS011;52034;51.926;6.320;2022-11-15T00:43:46;24.30;;;17.50;;
58101;SDS011;52034;51.926;6.320;2022-11-15T00:45:05;27.83;;;18.85;;
58101;SDS011;52034;51.926;6.320;2022-11-15T00:46:24;28.85;;;18.38;;
58101;SDS011;52034;51.926;6.320;2022-11-15T00:47:44;29.13;;;18.75;;
58101;SDS011;52034;51.926;6.320;2022-11-15T00:49:04;26.40;;;18.63;;
58101;SDS011;52034;51.926;6.320;2022-11-15T00:50:23;32.50;;;20.13;;
58101;SDS011;52034;51.926;6.320;2022-11-15T00:51:42;31.10;;;19.83;;
58101;SDS011;52034;51.926;6.320;2022-11-15T00:53:01;30.30;;;20.05;;
58101;SDS011;52034;51.926;6.320;2022-11-15T00:54:20;27.08;;;19.30;;
58101;SDS011;52034;51.926;6.320;2022-11-15T00:55:39;24.95;;;16.95;;
58101;SDS011;52034;51.926;6.320;2022-11-15T00:56:58;27.48;;;17.95;;
58101;SDS011;52034;51.926;6.320;2022-11-15T00:58:17;28.50;;;18.83;;
58101;SDS011;52034;51.926;6.320;2022-11-15T00:59:36;28.67;;;19.60;;
58101;SDS011;52034;51.926;6.320;2022-11-15T01:00:55;28.67;;;19.95;;
58101;SDS011;52034;51.926;6.320;2022-11-15T01:02:14;28.23;;;18.73;;
58101;SDS011;52034;51.926;6.320;2022-11-15T01:03:33;28.23;;;18.92;;
58101;SDS011;52034;51.926;6.320;2022-11-15T01:04:53;29.77;;;20.25;;
58101;SDS011;52034;51.926;6.320;2022-11-15T01:06:11;27.90;;;17.83;;
58101;SDS011;52034;51.926;6.320;2022-11-15T01:07:30;27.40;;;18.45;;
58101;SDS011;52034;51.926;6.320;2022-11-15T01:08:49;24.70;;;17.00;;
58101;SDS011;52034;51.926;6.320;2022-11-15T01:10:08;32.63;;;20.30;;
58101;SDS011;52034;51.926;6.320;2022-11-15T01:11:27;26.70;;;18.00;;
58101;SDS011;52034;51.926;6.320;2022-11-15T01:12:46;31.05;;;18.52;;
58101;SDS011;52034;51.926;6.320;2022-11-15T01:14:05;29.40;;;19.25;;
58101;SDS011;52034;51.926;6.320;2022-11-15T01:15:25;26.98;;;18.23;;
58101;SDS011;52034;51.926;6.320;2022-11-15T01:16:43;22.90;;;17.02;;
58101;SDS011;52034;51.926;6.320;2022-11-15T01:18:02;25.42;;;17.75;;
58101;SDS011;52034;51.926;6.320;2022-11-15T01:19:21;29.65;;;18.70;;
58101;SDS011;52034;51.926;6.320;2022-11-15T01:20:41;33.25;;;20.60;;
58101;SDS011;52034;51.926;6.320;2022-11-15T01:22:00;27.63;;;20.30;;
58101;SDS011;52034;51.926;6.320;2022-11-15T01:23:20;35.15;;;21.75;;
58101;SDS011;52034;51.926;6.320;2022-11-15T01:24:38;29.02;;;20.13;;
58101;SDS011;52034;51.926;6.320;2022-11-15T01:25:58;25.15;;;17.35;;
58101;SDS011;52034;51.926;6.320;2022-11-15T01:27:18;25.23;;;18.15;;
58101;SDS011;52034;51.926;6.320;2022-11-15T01:28:38;29.38;;;20.17;;
58101;SDS011;52034;51.926;6.320;2022-11-15T01:29:58;36.67;;;21.50;;
58101;SDS011;52034;51.926;6.320;2022-11-15T01:31:18;25.10;;;18.42;;
58101;SDS011;52034;51.926;6.320;2022-11-15T01:32:38;28.50;;;20.02;;
58101;SDS011;52034;51.926;6.320;2022-11-15T01:33:57;30.50;;;20.20;;
58101;SDS011;52034;51.926;6.320;2022-11-15T01:35:15;34.15;;;20.17;;
58101;SDS011;52034;51.926;6.320;2022-11-15T01:36:34;30.88;;;19.85;;
58101;SDS011;52034;51.926;6.320;2022-11-15T01:37:53;28.98;;;20.20;;
58101;SDS011;52034;51.926;6.320;2022-11-15T01:39:13;28.75;;;21.08;;
58101;SDS011;52034;51.926;6.320;2022-11-15T01:40:32;29.60;;;19.00;;
58101;SDS011;52034;51.926;6.320;2022-11-15T01:41:51;29.52;;;19.83;;
58101;SDS011;52034;51.926;6.320;2022-11-15T01:44:50;28.15;;;18.08;;
58101;SDS011;52034;51.926;6.320;2022-11-15T01:47:42;33.90;;;21.00;;
58101;SDS011;52034;51.926;6.320;2022-11-15T01:49:11;26.85;;;19.85;;
58101;SDS011;52034;51.926;6.320;2022-11-15T01:50:33;33.08;;;21.15;;
58101;SDS011;52034;51.926;6.320;2022-11-15T01:51:52;34.53;;;20.55;;
58101;SDS011;52034;51.926;6.320;2022-11-15T01:53:12;29.70;;;21.05;;
58101;SDS011;52034;51.926;6.320;2022-11-15T01:54:32;36.45;;;21.02;;
58101;SDS011;52034;51.926;6.320;2022-11-15T01:55:51;27.95;;;20.83;;
58101;SDS011;52034;51.926;6.320;2022-11-15T01:57:11;25.00;;;17.35;;
58101;SDS011;52034;51.926;6.320;2022-11-15T01:58:31;28.00;;;20.48;;
58101;SDS011;52034;51.926;6.320;2022-11-15T01:59:51;29.80;;;20.98;;
58101;SDS011;52034;51.926;6.320;2022-11-15T02:01:10;30.60;;;20.48;;
58101;SDS011;52034;51.926;6.320;2022-11-15T02:02:31;31.88;;;21.10;;
58101;SDS011;52034;51.926;6.320;2022-11-15T02:03:54;27.77;;;20.63;;
58101;SDS011;52034;51.926;6.320;2022-11-15T02:05:17;27.10;;;18.40;;
58101;SDS011;52034;51.926;6.320;2022-11-15T02:06:36;27.92;;;19.23;;
58101;SDS011;52034;51.926;6.320;2022-11-15T02:07:56;26.50;;;19.55;;
58101;SDS011;52034;51.926;6.320;2022-11-15T02:09:16;30.98;;;20.52;;
58101;SDS011;52034;51.926;6.320;2022-11-15T02:10:36;30.83;;;21.38;;
58101;SDS011;52034;51.926;6.320;2022-11-15T02:11:55;32.53;;;20.73;;
58101;SDS011;52034;51.926;6.320;2022-11-15T02:13:15;30.45;;;20.50;;
58101;SDS011;52034;51.926;6.320;2022-11-15T02:14:36;32.10;;;21.35;;
58101;SDS011;52034;51.926;6.320;2022-11-15T02:17:31;26.63;;;18.73;;
58101;SDS011;52034;51.926;6.320;2022-11-15T02:19:03;30.55;;;19.52;;
58101;SDS011;52034;51.926;6.320;2022-11-15T02:22:20;32.63;;;20.98;;
58101;SDS011;52034;51.926;6.320;2022-11-15T02:24:08;30.10;;;19.08;;
58101;SDS011;52034;51.926;6.320;2022-11-15T02:25:56;25.92;;;17.40;;
58101;SDS011;52034;51.926;6.320;2022-11-15T02:27:30;25.02;;;17.58;;
58101;SDS011;52034;51.926;6.320;2022-11-15T02:30:37;30.10;;;20.02;;
58101;SDS011;52034;51.926;6.320;2022-11-15T02:33:03;32.40;;;20.98;;
58101;SDS011;52034;51.926;6.320;2022-11-15T02:37:28;28.10;;;20.25;;
58101;SDS011;52034;51.926;6.320;2022-11-15T02:42:02;31.55;;;20.33;;
58101;SDS011;52034;51.926;6.320;2022-11-15T02:43:51;26.30;;;19.45;;
58101;SDS011;52034;51.926;6.320;2022-11-15T02:45:19;24.30;;;15.68;;
58101;SDS011;52034;51.926;6.320;2022-11-15T02:46:50;28.92;;;18.58;;
58101;SDS011;52034;51.926;6.320;2022-11-15T02:48:31;20.88;;;16.00;;
58101;SDS011;52034;51.926;6.320;2022-11-15T02:49:52;29.13;;;19.40;;
58101;SDS011;52034;51.926;6.320;2022-11-15T02:51:13;21.10;;;15.88;;
58101;SDS011;52034;51.926;6.320;2022-11-15T02:52:32;19.30;;;14.88;;
58101;SDS011;52034;51.926;6.320;2022-11-15T02:53:51;19.52;;;14.90;;
58101;SDS011;52034;51.926;6.320;2022-11-15T02:55:30;26.35;;;17.77;;
58101;SDS011;52034;51.926;6.320;2022-11-15T02:57:01;22.27;;;15.80;;
58101;SDS011;52034;51.926;6.320;2022-11-15T03:01:32;24.65;;;17.13;;
58101;SDS011;52034;51.926;6.320;2022-11-15T03:03:14;17.65;;;13.57;;
58101;SDS011;52034;51.926;6.320;2022-11-15T03:04:39;22.75;;;16.05;;
58101;SDS011;52034;51.926;6.320;2022-11-15T03:06:26;20.88;;;14.98;;
58101;SDS011;52034;51.926;6.320;2022-11-15T03:08:02;19.58;;;14.15;;
58101;SDS011;52034;51.926;6.320;2022-11-15T03:11:03;21.30;;;13.68;;
58101;SDS011;52034;51.926;6.320;2022-11-15T03:12:28;22.65;;;15.38;;
58101;SDS011;52034;51.926;6.320;2022-11-15T03:14:08;15.85;;;12.40;;
58101;SDS011;52034;51.926;6.320;2022-11-15T03:15:31;17.98;;;13.70;;
58101;SDS011;52034;51.926;6.320;2022-11-15T03:18:35;21.63;;;14.07;;
58101;SDS011;52034;51.926;6.320;2022-11-15T03:19:57;18.63;;;12.85;;
58101;SDS011;52034;51.926;6.320;2022-11-15T03:21:18;17.60;;;13.07;;
58101;SDS011;52034;51.926;6.320;2022-11-15T03:22:41;17.77;;;13.52;;
58101;SDS011;52034;51.926;6.320;2022-11-15T03:24:03;21.45;;;13.88;;
58101;SDS011;52034;51.926;6.320;2022-11-15T03:25:25;17.37;;;13.43;;
58101;SDS011;52034;51.926;6.320;2022-11-15T03:26:47;19.52;;;13.93;;
58101;SDS011;52034;51.926;6.320;2022-11-15T03:28:08;14.73;;;12.20;;
58101;SDS011;52034;51.926;6.320;2022-11-15T03:29:35;19.80;;;13.75;;
58101;SDS011;52034;51.926;6.320;2022-11-15T03:30:57;14.82;;;12.27;;
58101;SDS011;52034;51.926;6.320;2022-11-15T03:32:21;18.58;;;13.15;;
58101;SDS011;52034;51.926;6.320;2022-11-15T03:33:43;21.35;;;14.00;;
58101;SDS011;52034;51.926;6.320;2022-11-15T03:35:05;14.63;;;12.05;;
58101;SDS011;52034;51.926;6.320;2022-11-15T03:36:28;19.38;;;13.23;;
58101;SDS011;52034;51.926;6.320;2022-11-15T03:37:57;17.83;;;13.40;;
58101;SDS011;52034;51.926;6.320;2022-11-15T03:39:21;20.10;;;13.80;;
58101;SDS011;52034;51.926;6.320;2022-11-15T03:40:43;18.05;;;12.50;;
58101;SDS011;52034;51.926;6.320;2022-11-15T03:44:05;18.33;;;13.48;;
58101;SDS011;52034;51.926;6.320;2022-11-15T03:46:05;19.10;;;14.07;;
58101;SDS011;52034;51.926;6.320;2022-11-15T03:47:34;18.70;;;13.27;;
58101;SDS011;52034;51.926;6.320;2022-11-15T03:49:00;18.88;;;12.85;;
58101;SDS011;52034;51.926;6.320;2022-11-15T03:50:26;18.25;;;13.15;;
58101;SDS011;52034;51.926;6.320;2022-11-15T03:51:46;18.42;;;13.15;;
58101;SDS011;52034;51.926;6.320;2022-11-15T03:53:05;20.05;;;14.10;;
58101;SDS011;52034;51.926;6.320;2022-11-15T03:54:24;16.63;;;12.30;;
58101;SDS011;52034;51.926;6.320;2022-11-15T03:55:42;18.90;;;13.13;;
58101;SDS011;52034;51.926;6.320;2022-11-15T03:57:01;16.88;;;12.88;;
58101;SDS011;52034;51.926;6.320;2022-11-15T03:58:21;15.43;;;12.13;;
58101;SDS011;52034;51.926;6.320;2022-11-15T03:59:39;20.95;;;13.60;;
58101;SDS011;52034;51.926;6.320;2022-11-15T04:00:58;20.80;;;13.95;;
58101;SDS011;52034;51.926;6.320;2022-11-15T04:02:18;20.10;;;12.18;;
58101;SDS011;52034;51.926;6.320;2022-11-15T04:03:36;16.58;;;12.93;;
58101;SDS011;52034;51.926;6.320;2022-11-15T04:04:55;15.90;;;12.07;;
58101;SDS011;52034;51.926;6.320;2022-11-15T04:06:15;17.73;;;13.05;;
58101;SDS011;52034;51.926;6.320;2022-11-15T04:07:34;19.75;;;12.90;;
58101;SDS011;52034;51.926;6.320;2022-11-15T04:08:53;17.05;;;12.50;;
58101;SDS011;52034;51.926;6.320;2022-11-15T04:10:13;16.77;;;12.32;;
58101;SDS011;52034;51.926;6.320;2022-11-15T04:11:33;16.30;;;12.40;;
58101;SDS011;52034;51.926;6.320;2022-11-15T04:12:52;13.50;;;11.35;;
58101;SDS011;52034;51.926;6.320;2022-11-15T04:14:11;17.65;;;12.60;;
58101;SDS011;52034;51.926;6.320;2022-11-15T04:15:30;18.38;;;12.55;;
58101;SDS011;52034;51.926;6.320;2022-11-15T04:16:49;19.10;;;12.63;;
58101;SDS011;52034;51.926;6.320;2022-11-15T04:18:08;17.52;;;12.63;;
58101;SDS011;52034;51.926;6.320;2022-11-15T04:19:27;15.38;;;12.13;;
58101;SDS011;52034;51.926;6.320;2022-11-15T04:21:05;16.98;;;12.25;;
58101;SDS011;52034;51.926;6.320;2022-11-15T04:22:43;19.08;;;13.57;;
58101;SDS011;52034;51.926;6.320;2022-11-15T04:24:21;16.55;;;12.20;;
58101;SDS011;52034;51.926;6.320;2022-11-15T04:25:40;16.75;;;12.23;;
58101;SDS011;52034;51.926;6.320;2022-11-15T04:27:01;17.60;;;12.18;;
58101;SDS011;52034;51.926;6.320;2022-11-15T04:28:20;18.05;;;12.52;;
58101;SDS011;52034;51.926;6.320;2022-11-15T04:29:40;16.10;;;11.82;;
58101;SDS011;52034;51.926;6.320;2022-11-15T04:30:59;18.55;;;13.48;;
58101;SDS011;52034;51.926;6.320;2022-11-15T04:32:18;18.00;;;12.88;;
58101;SDS011;52034;51.926;6.320;2022-11-15T04:33:37;19.95;;;13.48;;
58101;SDS011;52034;51.926;6.320;2022-11-15T04:34:56;17.13;;;13.05;;
58101;SDS011;52034;51.926;6.320;2022-11-15T04:36:15;17.67;;;13.60;;
58101;SDS011;52034;51.926;6.320;2022-11-15T04:37:53;21.35;;;13.23;;
58101;SDS011;52034;51.926;6.320;2022-11-15T04:39:12;19.13;;;13.68;;
58101;SDS011;52034;51.926;6.320;2022-11-15T04:40:31;19.38;;;13.80;;
58101;SDS011;52034;51.926;6.320;2022-11-15T04:41:50;19.75;;;13.77;;
58101;SDS011;52034;51.926;6.320;2022-11-15T04:43:09;16.60;;;13.25;;
58101;SDS011;52034;51.926;6.320;2022-11-15T04:44:28;17.90;;;13.95;;
58101;SDS011;52034;51.926;6.320;2022-11-15T04:45:47;19.77;;;14.20;;
58101;SDS011;52034;51.926;6.320;2022-11-15T04:47:06;19.70;;;13.85;;
58101;SDS011;52034;51.926;6.320;2022-11-15T04:48:25;20.55;;;13.93;;
58101;SDS011;52034;51.926;6.320;2022-11-15T04:49:44;17.05;;;13.75;;
58101;SDS011;52034;51.926;6.320;2022-11-15T04:51:03;18.40;;;13.02;;
58101;SDS011;52034;51.926;6.320;2022-11-15T04:52:22;18.55;;;13.40;;
58101;SDS011;52034;51.926;6.320;2022-11-15T04:53:41;20.48;;;13.77;;
58101;SDS011;52034;51.926;6.320;2022-11-15T04:55:00;22.38;;;13.63;;
58101;SDS011;52034;51.926;6.320;2022-11-15T04:56:19;21.92;;;13.18;;
58101;SDS011;52034;51.926;6.320;2022-11-15T04:57:38;17.95;;;13.20;;
58101;SDS011;52034;51.926;6.320;2022-11-15T04:58:57;19.10;;;14.02;;
58101;SDS011;52034;51.926;6.320;2022-11-15T05:00:16;19.67;;;14.82;;
58101;SDS011;52034;51.926;6.320;2022-11-15T05:01:35;21.92;;;14.25;;
58101;SDS011;52034;51.926;6.320;2022-11-15T05:02:54;16.50;;;11.98;;
58101;SDS011;52034;51.926;6.320;2022-11-15T05:04:33;18.92;;;14.30;;
58101;SDS011;52034;51.926;6.320;2022-11-15T05:05:52;21.17;;;15.20;;
58101;SDS011;52034;51.926;6.320;2022-11-15T05:07:11;22.13;;;16.15;;
58101;SDS011;52034;51.926;6.320;2022-11-15T05:08:29;25.00;;;15.77;;
58101;SDS011;52034;51.926;6.320;2022-11-15T05:09:48;22.35;;;16.92;;
58101;SDS011;52034;51.926;6.320;2022-11-15T05:11:07;27.55;;;17.40;;
58101;SDS011;52034;51.926;6.320;2022-11-15T05:12:25;26.65;;;16.92;;
58101;SDS011;52034;51.926;6.320;2022-11-15T05:13:44;24.05;;;17.80;;
58101;SDS011;52034;51.926;6.320;2022-11-15T05:15:03;21.33;;;16.02;;
58101;SDS011;52034;51.926;6.320;2022-11-15T05:16:22;24.65;;;18.63;;
58101;SDS011;52034;51.926;6.320;2022-11-15T05:17:42;27.20;;;18.15;;
58101;SDS011;52034;51.926;6.320;2022-11-15T05:19:01;27.00;;;18.17;;
58101;SDS011;52034;51.926;6.320;2022-11-15T05:20:20;28.25;;;18.80;;
58101;SDS011;52034;51.926;6.320;2022-11-15T05:21:39;29.58;;;20.23;;
58101;SDS011;52034;51.926;6.320;2022-11-15T05:22:58;29.15;;;20.92;;
58101;SDS011;52034;51.926;6.320;2022-11-15T05:24:17;32.80;;;19.70;;
58101;SDS011;52034;51.926;6.320;2022-11-15T05:25:36;30.08;;;21.30;;
58101;SDS011;52034;51.926;6.320;2022-11-15T05:26:55;31.77;;;19.75;;
58101;SDS011;52034;51.926;6.320;2022-11-15T05:28:14;29.25;;;21.80;;
58101;SDS011;52034;51.926;6.320;2022-11-15T05:29:33;29.08;;;20.48;;
58101;SDS011;52034;51.926;6.320;2022-11-15T05:30:52;33.20;;;21.05;;
58101;SDS011;52034;51.926;6.320;2022-11-15T05:32:12;35.70;;;22.05;;
58101;SDS011;52034;51.926;6.320;2022-11-15T05:33:32;31.90;;;21.70;;
58101;SDS011;52034;51.926;6.320;2022-11-15T05:34:51;31.17;;;20.85;;
58101;SDS011;52034;51.926;6.320;2022-11-15T05:36:15;37.80;;;22.60;;
58101;SDS011;52034;51.926;6.320;2022-11-15T05:37:40;31.77;;;20.88;;
58101;SDS011;52034;51.926;6.320;2022-11-15T05:38:59;32.92;;;21.90;;
58101;SDS011;52034;51.926;6.320;2022-11-15T05:40:18;35.58;;;22.25;;
58101;SDS011;52034;51.926;6.320;2022-11-15T05:41:37;30.45;;;20.92;;
58101;SDS011;52034;51.926;6.320;2022-11-15T05:43:03;35.22;;;21.23;;
58101;SDS011;52034;51.926;6.320;2022-11-15T05:44:23;31.05;;;21.55;;
58101;SDS011;52034;51.926;6.320;2022-11-15T05:45:44;32.97;;;20.88;;
58101;SDS011;52034;51.926;6.320;2022-11-15T05:47:04;35.65;;;22.48;;
58101;SDS011;52034;51.926;6.320;2022-11-15T05:48:26;36.30;;;22.70;;
58101;SDS011;52034;51.926;6.320;2022-11-15T05:49:44;34.17;;;22.88;;
58101;SDS011;52034;51.926;6.320;2022-11-15T05:51:05;35.88;;;22.60;;
58101;SDS011;52034;51.926;6.320;2022-11-15T05:52:27;34.08;;;22.88;;
58101;SDS011;52034;51.926;6.320;2022-11-15T05:53:49;30.40;;;20.77;;
58101;SDS011;52034;51.926;6.320;2022-11-15T05:55:10;32.10;;;21.77;;
58101;SDS011;52034;51.926;6.320;2022-11-15T05:56:29;36.10;;;21.50;;
58101;SDS011;52034;51.926;6.320;2022-11-15T05:57:48;37.63;;;23.60;;
58101;SDS011;52034;51.926;6.320;2022-11-15T05:59:07;39.67;;;24.20;;
58101;SDS011;52034;51.926;6.320;2022-11-15T06:00:28;33.38;;;23.58;;
58101;SDS011;52034;51.926;6.320;2022-11-15T06:01:47;37.97;;;24.42;;
58101;SDS011;52034;51.926;6.320;2022-11-15T06:03:06;35.15;;;22.90;;
58101;SDS011;52034;51.926;6.320;2022-11-15T06:04:25;30.25;;;20.02;;
58101;SDS011;52034;51.926;6.320;2022-11-15T06:05:44;34.35;;;22.73;;
58101;SDS011;52034;51.926;6.320;2022-11-15T06:07:03;29.65;;;21.15;;
58101;SDS011;52034;51.926;6.320;2022-11-15T06:08:21;32.55;;;22.65;;
58101;SDS011;52034;51.926;6.320;2022-11-15T06:09:40;32.88;;;21.95;;
58101;SDS011;52034;51.926;6.320;2022-11-15T06:11:03;31.15;;;21.27;;
58101;SDS011;52034;51.926;6.320;2022-11-15T06:12:23;33.58;;;23.08;;
58101;SDS011;52034;51.926;6.320;2022-11-15T06:13:41;29.73;;;20.50;;
58101;SDS011;52034;51.926;6.320;2022-11-15T06:15:01;29.25;;;20.98;;
58101;SDS011;52034;51.926;6.320;2022-11-15T06:16:19;28.45;;;21.38;;
58101;SDS011;52034;51.926;6.320;2022-11-15T06:17:38;27.38;;;20.63;;
58101;SDS011;52034;51.926;6.320;2022-11-15T06:18:57;32.38;;;22.55;;
58101;SDS011;52034;51.926;6.320;2022-11-15T06:20:16;32.17;;;22.35;;
58101;SDS011;52034;51.926;6.320;2022-11-15T06:21:36;32.03;;;23.77;;
58101;SDS011;52034;51.926;6.320;2022-11-15T06:22:58;29.45;;;20.45;;
58101;SDS011;52034;51.926;6.320;2022-11-15T06:24:17;28.60;;;20.60;;
58101;SDS011;52034;51.926;6.320;2022-11-15T06:25:36;27.98;;;20.80;;
58101;SDS011;52034;51.926;6.320;2022-11-15T06:26:55;31.08;;;19.42;;
58101;SDS011;52034;51.926;6.320;2022-11-15T06:28:14;22.33;;;17.20;;
58101;SDS011;52034;51.926;6.320;2022-11-15T06:29:33;22.88;;;17.30;;
58101;SDS011;52034;51.926;6.320;2022-11-15T06:30:52;21.45;;;17.38;;
58101;SDS011;52034;51.926;6.320;2022-11-15T06:32:11;23.40;;;17.50;;
58101;SDS011;52034;51.926;6.320;2022-11-15T06:33:29;23.80;;;17.40;;
58101;SDS011;52034;51.926;6.320;2022-11-15T06:34:49;23.20;;;16.38;;
58101;SDS011;52034;51.926;6.320;2022-11-15T06:36:10;22.90;;;17.70;;
58101;SDS011;52034;51.926;6.320;2022-11-15T06:37:35;22.33;;;16.60;;
58101;SDS011;52034;51.926;6.320;2022-11-15T06:38:54;22.48;;;16.02;;
58101;SDS011;52034;51.926;6.320;2022-11-15T06:40:13;22.50;;;16.00;;
58101;SDS011;52034;51.926;6.320;2022-11-15T06:41:34;19.73;;;15.98;;
58101;SDS011;52034;51.926;6.320;2022-11-15T06:42:58;20.80;;;16.70;;
58101;SDS011;52034;51.926;6.320;2022-11-15T06:44:17;23.52;;;17.17;;
58101;SDS011;52034;51.926;6.320;2022-11-15T06:45:36;23.15;;;17.38;;
58101;SDS011;52034;51.926;6.320;2022-11-15T06:46:55;18.52;;;15.05;;
58101;SDS011;52034;51.926;6.320;2022-11-15T06:48:14;18.58;;;14.75;;
58101;SDS011;52034;51.926;6.320;2022-11-15T06:49:32;19.38;;;15.25;;
58101;SDS011;52034;51.926;6.320;2022-11-15T06:50:51;18.33;;;14.70;;
58101;SDS011;52034;51.926;6.320;2022-11-15T06:52:11;21.75;;;16.75;;
58101;SDS011;52034;51.926;6.320;2022-11-15T06:53:30;23.35;;;17.67;;
58101;SDS011;52034;51.926;6.320;2022-11-15T06:54:50;25.73;;;18.50;;
58101;SDS011;52034;51.926;6.320;2022-11-15T06:56:09;27.10;;;20.45;;
58101;SDS011;52034;51.926;6.320;2022-11-15T06:57:28;26.48;;;20.13;;
58101;SDS011;52034;51.926;6.320;2022-11-15T06:58:47;28.85;;;19.42;;
58101;SDS011;52034;51.926;6.320;2022-11-15T07:00:06;29.38;;;20.00;;
58101;SDS011;52034;51.926;6.320;2022-11-15T07:01:26;24.15;;;17.25;;
58101;SDS011;52034;51.926;6.320;2022-11-15T07:02:45;25.52;;;16.75;;
58101;SDS011;52034;51.926;6.320;2022-11-15T07:04:05;18.63;;;13.75;;
58101;SDS011;52034;51.926;6.320;2022-11-15T07:05:24;16.13;;;13.35;;
58101;SDS011;52034;51.926;6.320;2022-11-15T07:06:45;17.42;;;13.10;;
58101;SDS011;52034;51.926;6.320;2022-11-15T07:08:05;15.07;;;12.23;;
58101;SDS011;52034;51.926;6.320;2022-11-15T07:09:24;16.25;;;12.77;;
58101;SDS011;52034;51.926;6.320;2022-11-15T07:10:44;17.02;;;13.30;;
58101;SDS011;52034;51.926;6.320;2022-11-15T07:12:03;17.15;;;13.80;;
58101;SDS011;52034;51.926;6.320;2022-11-15T07:13:26;22.10;;;16.95;;
58101;SDS011;52034;51.926;6.320;2022-11-15T07:14:45;28.95;;;19.17;;
58101;SDS011;52034;51.926;6.320;2022-11-15T07:16:05;26.70;;;19.63;;
58101;SDS011;52034;51.926;6.320;2022-11-15T07:17:25;29.98;;;21.25;;
58101;SDS011;52034;51.926;6.320;2022-11-15T07:18:44;30.55;;;21.33;;
58101;SDS011;52034;51.926;6.320;2022-11-15T07:20:03;32.05;;;23.02;;
58101;SDS011;52034;51.926;6.320;2022-11-15T07:21:22;31.67;;;22.10;;
58101;SDS011;52034;51.926;6.320;2022-11-15T07:22:42;27.38;;;20.40;;
58101;SDS011;52034;51.926;6.320;2022-11-15T07:24:00;29.20;;;18.88;;
58101;SDS011;52034;51.926;6.320;2022-11-15T07:25:19;24.63;;;18.10;;
58101;SDS011;52034;51.926;6.320;2022-11-15T07:26:38;22.30;;;17.00;;
58101;SDS011;52034;51.926;6.320;2022-11-15T07:27:57;20.45;;;14.82;;
58101;SDS011;52034;51.926;6.320;2022-11-15T07:29:17;18.90;;;13.55;;
58101;SDS011;52034;51.926;6.320;2022-11-15T07:30:35;16.10;;;12.77;;
58101;SDS011;52034;51.926;6.320;2022-11-15T07:31:55;15.63;;;12.77;;
58101;SDS011;52034;51.926;6.320;2022-11-15T07:33:14;16.80;;;12.95;;
58101;SDS011;52034;51.926;6.320;2022-11-15T07:34:32;16.60;;;13.15;;
58101;SDS011;52034;51.926;6.320;2022-11-15T07:35:51;17.83;;;14.27;;
58101;SDS011;52034;51.926;6.320;2022-11-15T07:37:10;18.40;;;13.77;;
58101;SDS011;52034;51.926;6.320;2022-11-15T07:38:29;16.35;;;13.15;;
58101;SDS011;52034;51.926;6.320;2022-11-15T07:39:49;18.83;;;15.05;;
58101;SDS011;52034;51.926;6.320;2022-11-15T07:41:08;18.52;;;14.15;;
58101;SDS011;52034;51.926;6.320;2022-11-15T07:42:27;18.60;;;15.02;;
58101;SDS011;52034;51.926;6.320;2022-11-15T07:44:04;20.80;;;15.23;;
58101;SDS011;52034;51.926;6.320;2022-11-15T07:45:24;22.58;;;15.13;;
58101;SDS011;52034;51.926;6.320;2022-11-15T07:46:46;19.15;;;15.10;;
58101;SDS011;52034;51.926;6.320;2022-11-15T07:48:05;23.38;;;16.70;;
58101;SDS011;52034;51.926;6.320;2022-11-15T07:49:24;19.23;;;14.30;;
58101;SDS011;52034;51.926;6.320;2022-11-15T07:50:43;19.60;;;14.65;;
58101;SDS011;52034;51.926;6.320;2022-11-15T07:52:02;16.98;;;12.57;;
58101;SDS011;52034;51.926;6.320;2022-11-15T07:53:21;15.43;;;12.60;;
58101;SDS011;52034;51.926;6.320;2022-11-15T07:54:40;15.57;;;12.05;;
58101;SDS011;52034;51.926;6.320;2022-11-15T07:55:59;13.63;;;11.02;;
58101;SDS011;52034;51.926;6.320;2022-11-15T07:57:18;14.68;;;11.18;;
58101;SDS011;52034;51.926;6.320;2022-11-15T07:58:36;15.05;;;10.25;;
58101;SDS011;52034;51.926;6.320;2022-11-15T07:59:55;18.77;;;11.68;;
58101;SDS011;52034;51.926;6.320;2022-11-15T08:01:14;13.18;;;10.93;;
58101;SDS011;52034;51.926;6.320;2022-11-15T08:02:33;14.70;;;11.00;;
58101;SDS011;52034;51.926;6.320;2022-11-15T08:03:52;13.60;;;11.13;;
58101;SDS011;52034;51.926;6.320;2022-11-15T08:05:11;13.82;;;10.88;;
58101;SDS011;52034;51.926;6.320;2022-11-15T08:06:30;16.23;;;11.75;;
58101;SDS011;52034;51.926;6.320;2022-11-15T08:07:49;15.32;;;11.63;;
58101;SDS011;52034;51.926;6.320;2022-11-15T08:09:08;16.83;;;11.65;;
58101;SDS011;52034;51.926;6.320;2022-11-15T08:10:27;13.73;;;10.82;;
58101;SDS011;52034;51.926;6.320;2022-11-15T08:11:46;12.95;;;10.23;;
58101;SDS011;52034;51.926;6.320;2022-11-15T08:13:10;17.27;;;10.68;;
58101;SDS011;52034;51.926;6.320;2022-11-15T08:14:29;16.10;;;11.30;;
58101;SDS011;52034;51.926;6.320;2022-11-15T08:15:48;14.43;;;11.05;;
58101;SDS011;52034;51.926;6.320;2022-11-15T08:17:06;15.15;;;11.02;;